Narrabri West, New South Wales

10:10 AM AEDT on February 09, 2016 (GMT +1100)
Moree | | Change Station
CLOSE
Current Station
Airport
Location: Moree Airport,
Elevation: 699 ft
Nearby Weather Stations

Elev 699 ft 29.50 °S, 149.85 °E | Updated 10 minutes ago

Partly Cloudy
Partly Cloudy
79 °F
Feels Like 79 °F
N
10
Wind Variable Wind from ESE

Today
High -- | Low -- °F
--% Chance of Precip.
Yesterday
High -- | Low -- °F
Precip. -- in
Pressure 30.06 in
Visibility 6.2 miles
Clouds Few 4500 ft
Dew Point 54 °F
Humidity 42%
Rainfall 0.00 in
Snow Depth Not available.
6:35 AM 7:54 PM
New Moon, 0% visible
METAR YMOR 082300Z 12009KT 9999 FEW045 26/12 Q1018
Pressure 30.06 in
Visibility 6.2 miles
Clouds Few 4500 ft
Dew Point 54 °F
Humidity 42%
Rainfall 0.00 in
Snow Depth Not available.
6:35 AM 7:54 PM
New Moon, 0% visible
METAR YMOR 082300Z 12009KT 9999 FEW045 26/12 Q1018

10-Day Weather Forecast

Almanac

Astronomy

Feb. 09, 2016 Rise Set
Actual Time
Civil Twilight
Nautical Twilight
Astronomical Twilight
Moon
Length of Visible Light
Length of Day
Tomorrow will be .
, % of the Moon is Illuminated

Today's Extremes

Country Highs Country Lows

Community

WunderPhotos

Upload Photos

1,891,523 photos uploaded!

WunderBlog® & News

Nearby

Air Quality

  Air Quality AQ Index Pollutant
Not available.

Snow Depth

Station Depth Elevation

Earthquake Activity

City Distance Mag. Time & Date
Minimum magnitude displayed is 2.5.

Coastal Water Temperatures

Place Temperature

Stations

Nearby Weather Stations

Station Location Temp. Windchill Dew Point Humidity Wind Precip. Elev Updated Type